createdAt,value
2022-12-20T00:03:27.180Z,4.00
2022-12-20T00:08:29.274Z,4.32
2022-12-20T00:13:32.353Z,3.60
2022-12-20T00:18:35.091Z,3.45
2022-12-20T00:23:37.945Z,4.10
2022-12-20T00:28:41.796Z,3.90
2022-12-20T00:33:47.313Z,3.90
2022-12-20T00:38:51.421Z,3.60
2022-12-20T00:43:57.347Z,3.50
2022-12-20T00:49:00.095Z,3.60
2022-12-20T00:54:02.372Z,4.03
2022-12-20T00:59:04.839Z,4.20
2022-12-20T01:04:06.901Z,4.13
2022-12-20T01:09:10.924Z,4.75
2022-12-20T01:14:15.603Z,5.60
2022-12-20T01:19:18.358Z,5.00
2022-12-20T01:24:20.628Z,4.75
2022-12-20T01:29:22.629Z,5.53
2022-12-20T01:34:24.597Z,5.63
2022-12-20T01:39:26.754Z,5.35
2022-12-20T01:44:28.739Z,5.47
2022-12-20T01:49:35.008Z,6.10
2022-12-20T01:54:46.021Z,5.90
2022-12-20T02:04:50.713Z,5.70
2022-12-20T02:09:55.283Z,5.45
2022-12-20T02:15:09.720Z,5.82
2022-12-20T02:20:26.709Z,5.45
2022-12-20T02:25:38.487Z,5.85
2022-12-20T02:30:45.562Z,5.07
2022-12-20T02:35:47.890Z,5.05
2022-12-20T02:40:56.582Z,5.72
2022-12-20T02:46:00.357Z,5.40
2022-12-20T02:51:04.035Z,5.18
2022-12-20T02:56:14.541Z,5.30
2022-12-20T03:01:23.207Z,5.47
2022-12-20T03:06:25.738Z,5.38
2022-12-20T03:11:28.652Z,5.57
2022-12-20T03:16:31.792Z,5.30
2022-12-20T03:21:33.847Z,5.20
2022-12-20T03:26:36.489Z,4.93
2022-12-20T03:31:38.827Z,4.43
2022-12-20T03:36:41.007Z,5.63
2022-12-20T03:41:43.092Z,5.20
2022-12-20T03:46:47.223Z,4.72
2022-12-20T03:51:49.388Z,4.40
2022-12-20T03:56:51.587Z,4.90
2022-12-20T04:01:53.829Z,4.50
2022-12-20T04:06:56.507Z,4.60
2022-12-20T04:11:58.884Z,4.82
2022-12-20T04:17:03.406Z,4.10
2022-12-20T04:22:06.617Z,4.85
2022-12-20T04:27:24.954Z,4.65
2022-12-20T04:32:29.454Z,5.70
2022-12-20T04:37:32.124Z,4.55
2022-12-20T04:42:35.115Z,4.70
2022-12-20T04:47:37.328Z,4.68
2022-12-20T04:52:59.748Z,4.80
2022-12-20T04:58:07.526Z,4.05
2022-12-20T05:03:12.856Z,4.60
2022-12-20T05:08:15.965Z,4.35
2022-12-20T05:13:18.905Z,4.05
2022-12-20T05:18:23.140Z,3.72
2022-12-20T05:23:50.301Z,3.70
2022-12-20T05:28:57.602Z,4.13
2022-12-20T05:34:02.006Z,3.58
2022-12-20T05:39:07.978Z,3.92
2022-12-20T05:44:13.875Z,3.22
2022-12-20T05:49:19.262Z,3.13
2022-12-20T05:54:21.893Z,3.30
2022-12-20T05:59:32.480Z,3.55
2022-12-20T06:04:35.543Z,3.25
2022-12-20T06:09:43.886Z,2.95
2022-12-20T06:14:49.809Z,3.15
2022-12-20T06:19:52.818Z,3.00
2022-12-20T06:24:55.077Z,3.10
2022-12-20T06:30:03.190Z,3.05
2022-12-20T06:35:16.800Z,3.13
2022-12-20T06:40:19.167Z,3.03
2022-12-20T06:45:21.366Z,3.15
2022-12-20T06:50:24.521Z,3.10
2022-12-20T06:55:26.774Z,3.10
2022-12-20T07:00:29.027Z,2.65
2022-12-20T07:05:31.207Z,2.63
2022-12-20T07:10:37.666Z,2.88
2022-12-20T07:15:39.882Z,2.50
2022-12-20T07:20:42.034Z,2.78
2022-12-20T07:25:44.420Z,2.63
2022-12-20T07:30:46.556Z,2.88
2022-12-20T07:35:54.167Z,2.67
2022-12-20T07:40:57.578Z,3.05
2022-12-20T07:46:00.370Z,2.80
2022-12-20T07:51:07.249Z,2.65
2022-12-20T07:56:11.703Z,2.80
2022-12-20T08:01:14.199Z,2.88
2022-12-20T08:06:17.948Z,2.70
2022-12-20T08:11:21.159Z,3.22
2022-12-20T08:16:23.405Z,3.80
2022-12-20T08:21:25.819Z,3.33
2022-12-20T08:26:28.108Z,3.47
2022-12-20T08:31:30.316Z,3.92
2022-12-20T08:36:32.598Z,4.40
2022-12-20T08:41:36.795Z,3.55
2022-12-20T08:46:39.155Z,4.45
2022-12-20T08:51:41.680Z,4.78
2022-12-20T08:56:44.042Z,3.97
2022-12-20T09:01:46.449Z,4.10
2022-12-20T09:06:48.689Z,4.07
2022-12-20T09:11:50.820Z,3.90
2022-12-20T09:16:53.048Z,4.53
2022-12-20T09:21:55.546Z,3.90
2022-12-20T09:26:57.677Z,4.32
2022-12-20T09:31:59.974Z,4.00
2022-12-20T09:37:02.230Z,3.80
2022-12-20T09:42:09.352Z,4.47
2022-12-20T09:47:17.595Z,3.75
2022-12-20T09:52:34.682Z,4.20
2022-12-20T09:57:48.770Z,5.00
2022-12-20T10:03:06.420Z,4.25
2022-12-20T10:08:37.280Z,4.13
2022-12-20T10:13:48.656Z,4.55
2022-12-20T10:19:08.649Z,4.47
2022-12-20T10:24:34.075Z,4.90
2022-12-20T10:29:36.259Z,4.60
2022-12-20T10:34:43.529Z,5.38
2022-12-20T10:39:51.862Z,4.85
2022-12-20T10:44:55.511Z,4.88
2022-12-20T10:50:09.793Z,4.38
2022-12-20T10:55:44.518Z,5.60
2022-12-20T11:00:47.865Z,4.95
2022-12-20T11:06:03.491Z,5.15
2022-12-20T11:11:18.911Z,5.60
2022-12-20T11:16:27.448Z,5.85
2022-12-20T11:22:09.657Z,5.20
2022-12-20T11:27:20.524Z,5.60
2022-12-20T11:32:48.363Z,5.68
2022-12-20T11:38:09.220Z,6.18
2022-12-20T11:43:22.250Z,6.40
2022-12-20T11:48:46.489Z,6.25
2022-12-20T11:53:57.316Z,5.78
2022-12-20T11:59:05.679Z,6.07
2022-12-20T12:04:21.870Z,6.55
2022-12-20T12:09:50.962Z,6.53
2022-12-20T12:15:16.915Z,6.40
2022-12-20T12:20:31.900Z,6.47
2022-12-20T12:25:34.144Z,6.43
2022-12-20T12:30:39.618Z,6.55
2022-12-20T12:35:56.711Z,6.35
2022-12-20T12:41:07.985Z,8.15
2022-12-20T12:51:24.107Z,7.75
2022-12-20T12:56:43.390Z,7.95
2022-12-20T13:02:06.435Z,8.43
2022-12-20T13:07:35.544Z,9.00
2022-12-20T13:12:37.728Z,9.20
2022-12-20T13:17:49.676Z,9.15
2022-12-20T13:23:14.048Z,9.00
2022-12-20T13:28:19.142Z,9.40
2022-12-20T13:33:24.146Z,9.35
2022-12-20T13:38:45.345Z,9.13
2022-12-20T13:43:49.600Z,8.45
2022-12-20T13:48:55.779Z,9.30
2022-12-20T13:54:03.332Z,8.90
2022-12-20T13:59:14.335Z,8.77
2022-12-20T14:04:19.024Z,7.22
2022-12-20T14:09:36.238Z,7.03
2022-12-20T14:14:43.612Z,7.38
2022-12-20T14:19:45.879Z,8.60
2022-12-20T14:24:48.432Z,9.13
2022-12-20T14:29:52.085Z,9.30
2022-12-20T14:34:54.269Z,8.98
2022-12-20T14:40:14.780Z,8.77
2022-12-20T14:45:21.252Z,8.20
2022-12-20T14:50:35.349Z,10.13
2022-12-20T14:55:44.395Z,10.40
2022-12-20T15:01:14.353Z,9.82
2022-12-20T15:06:34.909Z,9.95
2022-12-20T15:11:39.127Z,9.50
2022-12-20T15:16:48.684Z,9.13
2022-12-20T15:21:51.530Z,9.73
2022-12-20T15:26:54.480Z,10.32
2022-12-20T15:32:06.046Z,10.23
2022-12-20T15:37:18.237Z,11.48
2022-12-20T15:42:22.973Z,12.07
2022-12-20T15:47:25.208Z,12.10
2022-12-20T15:52:27.793Z,13.73
2022-12-20T15:57:30.851Z,13.73
2022-12-20T16:02:33.417Z,13.65
2022-12-20T16:07:35.841Z,13.60
2022-12-20T16:12:38.609Z,14.50
2022-12-20T16:17:40.871Z,16.08
2022-12-20T16:22:43.164Z,16.92
2022-12-20T16:27:45.324Z,17.58
2022-12-20T16:32:47.461Z,18.73
2022-12-20T16:37:49.698Z,19.17
2022-12-20T16:42:51.877Z,17.70
2022-12-20T16:47:54.569Z,18.45
2022-12-20T16:52:56.797Z,18.88
2022-12-20T16:57:59.906Z,19.83
2022-12-20T17:03:02.239Z,19.05
2022-12-20T17:08:04.675Z,25.35
2022-12-20T17:13:08.158Z,20.00
2022-12-20T17:18:10.343Z,19.00
2022-12-20T17:23:15.748Z,18.90
2022-12-20T17:28:17.915Z,21.00
2022-12-20T17:33:20.143Z,21.23
2022-12-20T17:38:22.665Z,20.25
2022-12-20T17:43:24.861Z,21.60
2022-12-20T17:48:32.696Z,20.70
2022-12-20T17:53:36.241Z,20.58
2022-12-20T17:58:38.415Z,20.55
2022-12-20T18:04:03.090Z,19.65
2022-12-20T18:09:08.043Z,20.17
2022-12-20T18:14:11.148Z,20.77
2022-12-20T18:19:17.776Z,21.13
2022-12-20T18:24:21.557Z,19.80
2022-12-20T18:29:23.614Z,20.08
2022-12-20T18:34:25.665Z,23.45
2022-12-20T18:39:27.747Z,23.48
2022-12-20T18:44:35.420Z,22.48
2022-12-20T18:49:37.599Z,22.98
2022-12-20T18:54:39.612Z,22.83
2022-12-20T18:59:41.668Z,22.45
2022-12-20T19:04:44.593Z,22.27
2022-12-20T19:09:46.624Z,22.92
2022-12-20T19:14:48.621Z,22.80
2022-12-20T19:19:50.630Z,23.38
2022-12-20T19:24:53.425Z,23.98
2022-12-20T19:29:55.549Z,23.35
2022-12-20T19:34:57.589Z,25.40
2022-12-20T19:39:59.658Z,23.48
2022-12-20T19:45:01.805Z,24.38
2022-12-20T19:50:05.914Z,22.65
2022-12-20T19:55:08.437Z,23.45
2022-12-20T20:00:11.055Z,23.17
2022-12-20T20:05:16.206Z,24.75
2022-12-20T20:10:18.609Z,23.98
2022-12-20T20:15:20.695Z,23.27
2022-12-20T20:20:22.766Z,23.10
2022-12-20T20:25:24.753Z,24.85
2022-12-20T20:30:26.879Z,24.50
2022-12-20T20:35:28.849Z,23.63
2022-12-20T20:40:31.195Z,25.10
2022-12-20T20:45:33.316Z,25.08
2022-12-20T20:50:35.410Z,26.80
2022-12-20T20:55:37.882Z,25.67
2022-12-20T21:00:40.209Z,21.83
2022-12-20T21:11:07.048Z,16.10
2022-12-20T21:16:12.247Z,16.75
2022-12-20T21:21:14.398Z,16.80
2022-12-20T21:26:18.625Z,16.88
2022-12-20T21:31:20.781Z,18.55
2022-12-20T21:36:23.603Z,18.85
2022-12-20T21:41:28.535Z,19.20
2022-12-20T21:46:32.021Z,21.13
2022-12-20T21:51:35.329Z,21.75
2022-12-20T21:56:37.419Z,23.75
2022-12-20T22:01:40.049Z,24.45
2022-12-20T22:06:43.171Z,25.35
2022-12-20T22:11:47.893Z,27.10
2022-12-20T22:16:50.082Z,27.63
2022-12-20T22:21:57.733Z,29.23
2022-12-20T22:27:01.355Z,29.30
2022-12-20T22:32:06.249Z,29.67
2022-12-20T22:37:08.385Z,29.90
2022-12-20T22:42:10.509Z,31.75
2022-12-20T22:47:12.494Z,31.88
2022-12-20T22:52:14.572Z,32.75
2022-12-20T22:57:16.995Z,32.47
2022-12-20T23:02:19.397Z,32.90
2022-12-20T23:07:21.951Z,33.53
2022-12-20T23:12:43.066Z,33.42
2022-12-20T23:17:45.047Z,33.30
2022-12-20T23:22:47.164Z,34.55
2022-12-20T23:27:50.189Z,34.15
2022-12-20T23:32:53.565Z,32.78
2022-12-20T23:37:56.287Z,33.53
2022-12-20T23:42:58.284Z,33.28
2022-12-20T23:48:00.326Z,33.92
2022-12-20T23:53:02.359Z,34.60
2022-12-20T23:58:04.367Z,34.38
